Time;durP1;ratioP1;P1;durP2;ratioP2;P2;SDS_P1;SDS_P2;PMS_P1;PMS_P2;Temp;Humidity;BMP_temperature;BMP_pressure;BME280_temperature;BME280_humidity;BME280_pressure;Samples;Min_cycle;Max_cycle;Signal;HPM_P1;HPM_P2
2023/08/15 00:01:07;;;;;;;15.73;13.43;;;25.50;63.00;;;;;;5013756;28;20195;-74
2023/08/15 00:03:33;;;;;;;12.40;10.43;;;25.50;63.00;;;;;;5031551;28;20712;-74
2023/08/15 00:05:58;;;;;;;14.90;11.60;;;25.50;63.00;;;;;;5031525;28;20176;-74
2023/08/15 00:08:24;;;;;;;15.43;11.63;;;25.50;63.00;;;;;;5014030;28;20191;-73
2023/08/15 00:10:50;;;;;;;12.87;11.43;;;25.50;63.00;;;;;;5031425;28;20210;-72
2023/08/15 00:13:15;;;;;;;13.13;11.57;;;25.50;63.00;;;;;;5031444;28;20728;-74
2023/08/15 00:15:41;;;;;;;16.50;12.50;;;25.50;63.00;;;;;;5031443;28;20176;-74
2023/08/15 00:18:07;;;;;;;12.10;10.83;;;25.50;63.00;;;;;;5034112;28;20187;-73
2023/08/15 00:20:33;;;;;;;12.97;10.50;;;25.50;63.00;;;;;;5035104;28;20206;-74
2023/08/15 00:22:59;;;;;;;12.63;11.33;;;25.50;63.00;;;;;;5035154;28;20630;-73
2023/08/15 00:25:24;;;;;;;14.27;11.07;;;25.50;62.90;;;;;;5017300;28;20657;-74
2023/08/15 00:27:50;;;;;;;12.20;10.80;;;25.50;62.90;;;;;;5017185;28;20622;-74
2023/08/15 00:30:15;;;;;;;14.27;10.37;;;25.50;62.90;;;;;;5034930;28;20306;-73
2023/08/15 00:32:41;;;;;;;13.90;10.93;;;25.50;62.90;;;;;;5035095;28;20203;-74
2023/08/15 00:35:08;;;;;;;12.70;10.70;;;25.50;62.90;;;;;;5034864;28;20179;-74
2023/08/15 00:37:34;;;;;;;12.77;11.00;;;25.50;62.90;;;;;;5035211;28;20176;-73
2023/08/15 00:40:00;;;;;;;12.10;10.90;;;25.50;62.90;;;;;;5034806;28;20429;-73
2023/08/15 00:42:26;;;;;;;12.43;11.13;;;25.50;62.90;;;;;;5034782;28;20587;-73
2023/08/15 00:44:52;;;;;;;12.43;10.30;;;25.50;63.00;;;;;;5034704;28;20454;-73
2023/08/15 00:47:19;;;;;;;12.90;11.23;;;25.50;62.90;;;;;;5034711;28;20199;-74
2023/08/15 00:49:45;;;;;;;15.00;10.80;;;25.50;62.90;;;;;;5034553;28;20282;-72
2023/08/15 00:52:13;;;;;;;13.20;11.80;;;25.50;62.90;;;;;;5034488;28;20496;-74
2023/08/15 00:54:42;;;;;;;15.97;11.70;;;25.50;62.90;;;;;;5016751;28;20510;-74
2023/08/15 00:57:07;;;;;;;11.70;10.50;;;25.50;62.90;;;;;;5034771;28;20480;-74
2023/08/15 00:59:33;;;;;;;14.70;12.27;;;25.50;62.90;;;;;;5034369;28;20427;-73
2023/08/15 01:01:59;;;;;;;12.30;11.00;;;25.50;62.80;;;;;;5034447;28;20176;-73
2023/08/15 01:04:26;;;;;;;13.87;10.53;;;25.50;62.90;;;;;;5034324;28;20484;-74
2023/08/15 01:06:51;;;;;;;12.00;10.20;;;25.50;62.90;;;;;;5034345;28;20550;-73
2023/08/15 01:09:17;;;;;;;11.63;10.30;;;25.50;62.80;;;;;;5034211;28;20419;-73
2023/08/15 01:12:01;;;;;;;11.13;9.97;;;25.50;62.80;;;;;;5034115;28;20202;-73
2023/08/15 01:14:34;;;;;;;12.60;11.07;;;25.50;62.80;;;;;;5034199;28;20629;-73
2023/08/15 01:17:01;;;;;;;12.43;10.97;;;25.50;62.80;;;;;;5034170;28;20391;-73
2023/08/15 01:19:36;;;;;;;12.30;10.90;;;25.50;62.90;;;;;;5034035;28;20831;-73
2023/08/15 01:22:09;;;;;;;13.30;10.80;;;25.50;62.80;;;;;;5034235;28;20405;-74
2023/08/15 01:24:35;;;;;;;14.67;10.77;;;25.50;62.80;;;;;;5034019;28;20407;-73
2023/08/15 01:27:00;;;;;;;14.70;11.20;;;25.50;62.80;;;;;;5016088;28;20433;-73
2023/08/15 01:29:26;;;;;;;13.40;10.80;;;25.50;62.80;;;;;;5032752;28;20422;-74
2023/08/15 01:32:00;;;;;;;11.13;10.03;;;25.50;62.80;;;;;;5033754;28;20199;-73
2023/08/15 01:34:32;;;;;;;11.00;9.90;;;25.50;62.80;;;;;;5033869;28;20187;-73
2023/08/15 01:37:04;;;;;;;13.37;10.63;;;25.50;62.80;;;;;;5033833;28;20411;-73
2023/08/15 01:39:32;;;;;;;11.30;10.20;;;25.50;63.30;;;;;;5033997;28;20386;-73
2023/08/15 01:42:01;;;;;;;12.77;10.37;;;25.50;62.80;;;;;;5033677;28;20910;-74
2023/08/15 01:44:28;;;;;;;11.90;9.90;;;25.50;62.80;;;;;;5033921;28;20417;-73
2023/08/15 01:46:55;;;;;;;12.77;10.60;;;25.50;62.80;;;;;;5033878;28;20464;-72
2023/08/15 01:49:20;;;;;;;12.23;10.27;;;25.50;62.80;;;;;;5033734;28;20421;-73
2023/08/15 01:51:46;;;;;;;11.73;9.80;;;25.50;62.80;;;;;;5015775;28;20469;-74
2023/08/15 01:54:12;;;;;;;11.83;10.53;;;25.50;62.80;;;;;;5033448;28;20202;-73
2023/08/15 01:56:37;;;;;;;11.70;10.13;;;25.50;62.80;;;;;;5033371;28;20629;-73
2023/08/15 01:59:03;;;;;;;11.80;10.57;;;25.50;62.80;;;;;;5033641;28;20250;-74
2023/08/15 02:01:29;;;;;;;10.77;9.67;;;25.50;62.80;;;;;;5033270;28;20223;-73
2023/08/15 02:03:54;;;;;;;10.70;9.60;;;25.50;62.70;;;;;;5015455;28;20183;-73
2023/08/15 02:06:20;;;;;;;12.20;10.43;;;25.50;63.60;;;;;;5015444;28;20262;-73
2023/08/15 02:08:45;;;;;;;11.50;10.20;;;25.50;62.80;;;;;;5033144;28;20187;-73
2023/08/15 02:11:11;;;;;;;12.90;10.00;;;25.50;62.70;;;;;;5015376;28;20192;-73
2023/08/15 02:13:36;;;;;;;11.80;10.10;;;25.50;62.70;;;;;;5032984;28;20226;-73
2023/08/15 02:16:02;;;;;;;10.73;9.40;;;25.50;62.70;;;;;;5032998;28;20168;-73
2023/08/15 02:18:32;;;;;;;11.53;10.43;;;25.50;62.70;;;;;;5032963;28;20259;-73
2023/08/15 02:20:57;;;;;;;11.93;10.50;;;25.50;62.70;;;;;;5032893;28;20188;-73
2023/08/15 02:23:23;;;;;;;10.47;9.07;;;25.50;63.50;;;;;;5033138;28;20425;-74
2023/08/15 02:25:49;;;;;;;10.83;9.67;;;25.50;62.70;;;;;;5032840;28;20262;-73
2023/08/15 02:28:15;;;;;;;12.33;10.57;;;25.50;62.60;;;;;;5032772;28;20176;-73
2023/08/15 02:30:40;;;;;;;10.90;9.80;;;25.50;62.60;;;;;;5032634;28;20218;-73
2023/08/15 02:33:07;;;;;;;10.63;8.83;;;25.50;62.70;;;;;;5032622;28;20203;-73
2023/08/15 02:35:33;;;;;;;10.80;9.50;;;25.50;62.60;;;;;;5032900;28;20680;-73
2023/08/15 02:37:59;;;;;;;11.37;10.07;;;25.50;62.60;;;;;;5032545;28;20416;-73
2023/08/15 02:40:26;;;;;;;12.30;10.40;;;25.50;62.60;;;;;;5014665;28;20442;-73
2023/08/15 02:42:52;;;;;;;10.40;9.33;;;25.50;62.70;;;;;;5015107;28;20283;-73
2023/08/15 02:45:18;;;;;;;10.43;9.07;;;25.50;62.60;;;;;;5015182;28;20500;-73
2023/08/15 02:47:44;;;;;;;11.97;10.50;;;25.50;62.60;;;;;;5032424;28;20180;-72
2023/08/15 02:50:11;;;;;;;10.03;9.03;;;25.50;62.50;;;;;;5032544;28;20569;-73
2023/08/15 02:52:36;;;;;;;11.60;9.70;;;25.50;62.60;;;;;;5032286;28;20893;-73
2023/08/15 02:55:02;;;;;;;9.20;8.27;;;25.50;63.30;;;;;;5032297;28;20468;-73
2023/08/15 02:57:28;;;;;;;10.30;9.20;;;25.50;62.50;;;;;;5032276;28;20246;-73
2023/08/15 02:59:54;;;;;;;10.73;9.37;;;25.50;62.50;;;;;;5032257;28;20218;-72
2023/08/15 03:02:19;;;;;;;11.23;9.30;;;25.50;62.60;;;;;;5032490;28;21046;-73
2023/08/15 03:04:45;;;;;;;9.67;8.80;;;25.50;62.50;;;;;;5032145;28;20179;-73
2023/08/15 03:07:10;;;;;;;12.33;10.23;;;25.50;62.50;;;;;;5032194;28;20219;-73
2023/08/15 03:09:36;;;;;;;10.53;9.50;;;25.50;62.40;;;;;;5032049;28;20664;-74
2023/08/15 03:12:02;;;;;;;10.20;9.10;;;25.50;62.40;;;;;;5032383;28;20202;-73
2023/08/15 03:14:29;;;;;;;11.23;9.93;;;25.50;62.50;;;;;;5032125;28;20298;-73
2023/08/15 03:16:54;;;;;;;10.63;9.30;;;25.50;62.50;;;;;;5032036;28;20915;-73
2023/08/15 03:19:20;;;;;;;9.20;8.30;;;25.50;62.50;;;;;;5031912;28;20418;-73
2023/08/15 03:21:46;;;;;;;9.77;8.13;;;25.50;62.50;;;;;;5031953;28;20642;-73
2023/08/15 03:24:12;;;;;;;9.17;8.27;;;25.50;62.50;;;;;;5032156;28;20446;-73
2023/08/15 03:26:38;;;;;;;9.83;8.80;;;25.50;62.50;;;;;;5014169;28;20210;-73
2023/08/15 03:29:05;;;;;;;10.87;9.23;;;25.50;62.40;;;;;;5014413;28;20601;-73
2023/08/15 03:31:30;;;;;;;10.07;9.03;;;25.50;62.40;;;;;;5013954;28;20458;-73
2023/08/15 03:33:56;;;;;;;10.07;8.77;;;25.50;62.40;;;;;;5031863;28;20411;-73
2023/08/15 03:36:22;;;;;;;10.50;9.17;;;25.50;62.40;;;;;;5031809;28;20607;-73
2023/08/15 03:38:48;;;;;;;9.10;8.20;;;25.50;62.40;;;;;;5031783;28;20174;-73
2023/08/15 03:41:13;;;;;;;10.00;8.97;;;25.50;62.40;;;;;;5031732;28;20941;-73
2023/08/15 03:43:39;;;;;;;10.63;9.50;;;25.50;62.40;;;;;;5032417;28;20616;-73
2023/08/15 03:46:06;;;;;;;9.83;8.80;;;25.50;62.40;;;;;;5031804;28;20625;-73
2023/08/15 03:48:31;;;;;;;8.73;7.93;;;25.50;62.40;;;;;;5032026;28;20645;-73
2023/08/15 03:50:59;;;;;;;9.13;8.30;;;25.50;62.40;;;;;;5031662;28;20434;-73
2023/08/15 03:53:25;;;;;;;9.87;8.40;;;25.50;62.40;;;;;;5034671;28;20656;-73
2023/08/15 03:55:52;;;;;;;10.77;9.37;;;25.50;62.40;;;;;;5017842;28;20421;-73
2023/08/15 03:58:18;;;;;;;9.13;8.17;;;25.50;62.40;;;;;;5035584;28;20403;-73
2023/08/15 04:00:45;;;;;;;10.33;8.97;;;25.50;62.40;;;;;;5035462;28;20430;-72
2023/08/15 04:03:11;;;;;;;12.50;9.27;;;25.50;62.40;;;;;;5035499;28;20973;-73
2023/08/15 04:05:36;;;;;;;9.17;8.27;;;25.50;62.30;;;;;;5035463;28;20423;-73
2023/08/15 04:08:02;;;;;;;9.93;8.93;;;25.50;62.30;;;;;;5017644;28;20184;-73
2023/08/15 04:10:28;;;;;;;9.87;8.63;;;25.50;62.40;;;;;;5017489;28;20241;-73
2023/08/15 04:12:55;;;;;;;10.63;8.70;;;25.50;62.40;;;;;;5035223;28;20454;-73
2023/08/15 04:15:21;;;;;;;10.13;9.13;;;25.50;62.30;;;;;;5035276;28;20410;-73
2023/08/15 04:17:47;;;;;;;9.03;8.07;;;25.50;62.40;;;;;;5035258;28;20406;-73
2023/08/15 04:20:13;;;;;;;9.57;8.70;;;25.50;62.30;;;;;;5035182;28;20549;-73
2023/08/15 04:22:38;;;;;;;10.13;8.23;;;25.50;62.30;;;;;;5035120;28;20175;-73
2023/08/15 04:25:07;;;;;;;9.80;8.33;;;25.50;62.40;;;;;;5017347;28;20418;-73
2023/08/15 04:27:33;;;;;;;9.17;8.27;;;25.50;62.40;;;;;;5035053;28;20656;-73
2023/08/15 04:29:58;;;;;;;9.37;8.33;;;25.50;62.30;;;;;;5034810;28;20489;-73
2023/08/15 04:32:24;;;;;;;10.80;9.77;;;25.50;62.30;;;;;;5034899;28;20221;-73
2023/08/15 04:34:49;;;;;;;9.77;8.77;;;25.50;62.30;;;;;;5034945;28;20229;-73
2023/08/15 04:37:15;;;;;;;8.07;7.27;;;25.50;62.30;;;;;;5034845;28;20540;-73
2023/08/15 04:39:41;;;;;;;8.13;7.37;;;25.50;62.40;;;;;;5034811;28;20219;-73
2023/08/15 04:42:06;;;;;;;9.97;8.37;;;25.50;62.30;;;;;;5035027;28;20179;-73
2023/08/15 04:44:32;;;;;;;9.00;7.87;;;25.50;62.30;;;;;;5034692;28;20612;-73
2023/08/15 04:46:57;;;;;;;9.77;8.77;;;25.50;62.30;;;;;;5034959;28;20183;-73
2023/08/15 04:49:23;;;;;;;7.67;6.90;;;25.50;62.30;;;;;;5016906;28;20245;-73
2023/08/15 04:51:48;;;;;;;9.67;8.23;;;25.50;62.30;;;;;;5034547;28;20210;-73
2023/08/15 04:54:14;;;;;;;8.50;7.70;;;25.50;62.30;;;;;;5034517;28;20167;-73
2023/08/15 04:56:39;;;;;;;10.77;7.87;;;25.50;62.30;;;;;;5034498;28;20526;-73
2023/08/15 04:59:05;;;;;;;8.90;8.00;;;25.50;62.40;;;;;;5034414;28;20172;-73
2023/08/15 05:01:31;;;;;;;8.97;7.77;;;25.50;62.30;;;;;;5034154;28;20203;-73
2023/08/15 05:03:56;;;;;;;9.53;7.80;;;25.50;62.30;;;;;;5033234;28;20192;-73
2023/08/15 05:06:22;;;;;;;9.53;8.60;;;25.50;62.30;;;;;;5034548;28;20250;-73
2023/08/15 05:08:47;;;;;;;9.30;7.60;;;25.50;62.30;;;;;;5034193;28;20551;-74
2023/08/15 05:11:13;;;;;;;9.20;8.30;;;25.50;62.30;;;;;;5034156;28;20629;-73
2023/08/15 05:13:39;;;;;;;8.43;7.60;;;25.50;62.30;;;;;;5034016;28;20257;-73
2023/08/15 05:16:04;;;;;;;9.80;7.80;;;25.50;62.20;;;;;;5034370;28;20186;-73
2023/08/15 05:18:30;;;;;;;8.87;7.97;;;25.50;62.20;;;;;;5034134;28;20172;-73
2023/08/15 05:20:55;;;;;;;7.27;6.60;;;25.50;62.20;;;;;;5033983;28;20195;-74
2023/08/15 05:23:21;;;;;;;8.13;7.43;;;25.50;62.10;;;;;;5034257;28;20179;-73
2023/08/15 05:25:47;;;;;;;7.67;6.87;;;25.50;62.10;;;;;;5033974;28;20207;-73
2023/08/15 05:28:12;;;;;;;7.93;7.07;;;25.50;62.10;;;;;;5033948;28;20175;-73
2023/08/15 05:30:39;;;;;;;9.07;7.57;;;25.50;62.10;;;;;;5033721;28;20703;-74
2023/08/15 05:33:04;;;;;;;8.00;7.00;;;25.60;62.10;;;;;;5015959;28;21012;-73
2023/08/15 05:35:30;;;;;;;8.17;7.37;;;25.50;62.00;;;;;;5033714;28;20418;-73
2023/08/15 05:37:56;;;;;;;7.50;6.80;;;25.60;62.10;;;;;;5015961;28;20743;-73
2023/08/15 05:40:22;;;;;;;9.07;7.40;;;25.60;62.00;;;;;;5033580;28;20550;-73
2023/08/15 05:42:48;;;;;;;8.00;7.20;;;25.60;62.00;;;;;;5033632;28;20532;-73
2023/08/15 05:45:14;;;;;;;9.47;7.40;;;25.60;62.00;;;;;;5033555;28;20284;-73
2023/08/15 05:47:40;;;;;;;7.87;7.10;;;25.60;62.00;;;;;;5033517;28;20410;-73
2023/08/15 05:50:06;;;;;;;8.70;7.00;;;25.60;62.00;;;;;;5033394;28;20819;-73
2023/08/15 05:52:33;;;;;;;7.83;7.10;;;25.60;62.00;;;;;;5015546;28;20272;-73
2023/08/15 05:54:58;;;;;;;8.47;7.60;;;25.60;61.90;;;;;;5033438;28;20502;-73
2023/08/15 05:57:24;;;;;;;8.40;7.60;;;25.60;61.90;;;;;;5033265;28;20482;-73
2023/08/15 05:59:49;;;;;;;8.50;7.53;;;25.60;61.90;;;;;;5033241;28;20203;-73
2023/08/15 06:02:15;;;;;;;8.33;7.37;;;25.60;61.90;;;;;;5033491;28;20229;-73
2023/08/15 06:04:41;;;;;;;7.90;7.10;;;25.60;61.90;;;;;;5033259;28;20179;-73
2023/08/15 06:07:07;;;;;;;8.53;7.30;;;25.60;61.80;;;;;;5015668;28;20175;-73
2023/08/15 06:09:32;;;;;;;7.70;6.90;;;25.60;61.80;;;;;;5033129;28;20223;-74
2023/08/15 06:11:58;;;;;;;7.43;6.73;;;25.60;61.80;;;;;;5033076;28;20603;-73
2023/08/15 06:14:24;;;;;;;8.80;7.90;;;25.60;61.80;;;;;;5032813;28;20580;-73
2023/08/15 06:16:49;;;;;;;7.20;6.50;;;25.60;61.80;;;;;;5033015;28;20176;-73
2023/08/15 06:19:15;;;;;;;8.10;7.30;;;25.60;61.80;;;;;;5032896;28;20171;-73
2023/08/15 06:21:41;;;;;;;7.63;6.90;;;25.60;61.80;;;;;;5032870;28;20179;-74
2023/08/15 06:24:11;;;;;;;9.00;7.50;;;25.60;61.80;;;;;;5032865;28;20763;-74
2023/08/15 06:26:38;;;;;;;8.00;6.70;;;25.60;61.80;;;;;;5032979;28;20649;-73
2023/08/15 06:29:05;;;;;;;7.53;6.83;;;25.60;61.80;;;;;;5014797;28;20492;-74
2023/08/15 06:31:32;;;;;;;7.63;6.90;;;25.60;61.90;;;;;;5032591;28;20825;-73
2023/08/15 06:34:00;;;;;;;7.30;6.60;;;25.60;61.80;;;;;;5032656;28;20915;-74
2023/08/15 06:36:26;;;;;;;8.50;7.60;;;25.60;61.80;;;;;;5032576;28;20410;-73
2023/08/15 06:38:51;;;;;;;7.70;7.00;;;25.60;61.80;;;;;;5032623;28;20778;-73
2023/08/15 06:41:17;;;;;;;7.37;6.67;;;25.60;61.80;;;;;;5032476;28;20227;-72
2023/08/15 06:43:46;;;;;;;7.30;6.60;;;25.60;61.80;;;;;;5014756;28;20179;-73
2023/08/15 06:46:12;;;;;;;7.17;6.47;;;25.60;61.70;;;;;;5014720;28;20190;-73
2023/08/15 06:48:38;;;;;;;8.03;7.23;;;25.60;61.70;;;;;;5032231;28;20419;-74
2023/08/15 06:51:03;;;;;;;7.40;6.17;;;25.60;61.70;;;;;;5014489;28;20195;-73
2023/08/15 06:53:33;;;;;;;7.30;6.60;;;25.60;61.90;;;;;;5032267;28;20571;-73
2023/08/15 06:56:00;;;;;;;7.90;7.10;;;25.60;61.80;;;;;;5032537;28;20270;-73
2023/08/15 06:58:26;;;;;;;7.67;6.87;;;25.60;61.80;;;;;;5032216;28;20497;-72
2023/08/15 07:00:51;;;;;;;8.00;7.23;;;25.60;61.80;;;;;;5032140;28;20207;-73
2023/08/15 07:03:18;;;;;;;7.00;6.40;;;25.60;61.80;;;;;;5032181;28;20402;-73
2023/08/15 07:05:45;;;;;;;7.23;6.53;;;25.70;61.90;;;;;;5032111;28;20187;-73
2023/08/15 07:08:13;;;;;;;7.10;6.40;;;25.60;61.80;;;;;;5032113;28;20845;-74
2023/08/15 07:10:38;;;;;;;7.50;6.80;;;25.70;61.90;;;;;;5014225;28;20441;-72
2023/08/15 07:13:04;;;;;;;7.73;6.57;;;25.70;62.70;;;;;;5031933;28;20468;-73
2023/08/15 07:15:31;;;;;;;6.70;5.97;;;25.70;61.90;;;;;;5029032;28;20270;-73
2023/08/15 07:17:56;;;;;;;7.73;6.17;;;25.70;61.90;;;;;;5031514;28;20183;-73
2023/08/15 07:20:22;;;;;;;6.70;6.10;;;25.70;61.90;;;;;;5014003;28;20857;-73
2023/08/15 07:22:48;;;;;;;6.90;6.30;;;25.70;61.90;;;;;;5032262;28;20186;-74
2023/08/15 07:25:14;;;;;;;7.30;6.60;;;25.70;61.80;;;;;;5031999;28;20180;-73
2023/08/15 07:27:39;;;;;;;7.07;6.37;;;25.70;61.80;;;;;;5031117;28;20182;-73
2023/08/15 07:30:06;;;;;;;7.60;6.13;;;25.70;61.80;;;;;;5031654;28;20211;-74
2023/08/15 07:32:34;;;;;;;6.83;6.13;;;25.70;61.80;;;;;;5031821;28;20207;-74
2023/08/15 07:35:00;;;;;;;6.87;6.20;;;25.70;61.90;;;;;;5031918;28;20969;-74
2023/08/15 07:37:26;;;;;;;10.47;6.77;;;25.70;61.70;;;;;;5031865;28;20410;-73
2023/08/15 07:40:05;;;;;;;7.00;6.40;;;25.70;61.80;;;;;;5031758;28;20422;-72
2023/08/15 07:42:31;;;;;;;7.10;6.40;;;25.70;61.80;;;;;;5031594;28;20183;-73
2023/08/15 07:44:57;;;;;;;6.87;6.17;;;25.70;61.80;;;;;;5031576;28;20417;-73
2023/08/15 07:47:22;;;;;;;6.90;6.30;;;25.70;61.90;;;;;;5013886;28;20215;-73
2023/08/15 07:49:48;;;;;;;8.67;5.70;;;25.70;61.90;;;;;;5030967;28;20629;-73
2023/08/15 07:52:14;;;;;;;8.03;7.33;;;25.70;61.90;;;;;;5031123;28;20676;-73
2023/08/15 07:54:42;;;;;;;8.20;6.13;;;25.70;61.90;;;;;;5031005;28;20640;-73
2023/08/15 07:57:08;;;;;;;6.60;6.00;;;25.70;61.90;;;;;;5031098;28;20225;-73
2023/08/15 07:59:34;;;;;;;8.00;6.90;;;25.70;61.90;;;;;;5013504;28;20446;-73
2023/08/15 08:01:59;;;;;;;7.30;6.00;;;25.70;62.30;;;;;;5031413;28;20191;-73
2023/08/15 08:04:25;;;;;;;6.60;5.87;;;25.70;61.90;;;;;;5012709;28;20613;-73
2023/08/15 08:06:50;;;;;;;6.63;6.03;;;25.70;61.90;;;;;;5029649;28;20652;-73
2023/08/15 08:09:16;;;;;;;6.83;6.00;;;25.70;62.00;;;;;;5013605;28;20614;-73
2023/08/15 08:11:41;;;;;;;8.00;7.20;;;25.70;61.90;;;;;;5030500;28;20230;-73
2023/08/15 08:14:07;;;;;;;6.47;5.87;;;25.70;61.90;;;;;;5031202;28;20205;-73
2023/08/15 08:16:33;;;;;;;6.67;5.87;;;25.70;61.90;;;;;;5031370;28;20172;-73
2023/08/15 08:18:58;;;;;;;6.40;5.80;;;25.70;62.00;;;;;;5013666;28;20183;-73
2023/08/15 08:21:24;;;;;;;6.60;6.00;;;25.70;62.00;;;;;;5031461;28;20215;-73
2023/08/15 08:23:50;;;;;;;6.60;6.00;;;25.70;61.90;;;;;;5013579;28;20187;-73
2023/08/15 08:26:16;;;;;;;7.07;6.43;;;25.70;61.90;;;;;;5031428;28;21017;-73
2023/08/15 08:28:41;;;;;;;6.27;5.70;;;25.70;61.90;;;;;;5031249;28;20180;-74
2023/08/15 08:31:07;;;;;;;6.13;5.60;;;25.70;61.90;;;;;;5013510;28;20719;-73
2023/08/15 08:33:33;;;;;;;8.03;6.50;;;25.70;61.90;;;;;;5031066;28;20267;-74
2023/08/15 08:36:01;;;;;;;6.47;5.87;;;25.80;62.00;;;;;;5013594;28;20645;-73
2023/08/15 08:38:26;;;;;;;6.90;6.20;;;25.70;62.00;;;;;;5032635;28;20629;-73
2023/08/15 08:40:55;;;;;;;6.83;6.23;;;25.70;61.90;;;;;;5016000;28;20457;-73
2023/08/15 08:43:20;;;;;;;6.97;6.27;;;25.80;62.00;;;;;;5017011;28;20188;-72
2023/08/15 08:45:52;;;;;;;6.40;5.80;;;25.80;62.00;;;;;;5034919;28;20429;-72
2023/08/15 08:48:19;;;;;;;6.80;6.20;;;25.80;62.00;;;;;;5016836;28;20194;-73
2023/08/15 08:50:45;;;;;;;6.57;5.90;;;25.80;62.00;;;;;;5033255;28;20476;-74
2023/08/15 08:53:11;;;;;;;6.57;6.03;;;25.80;62.00;;;;;;5016708;28;20478;-73
2023/08/15 08:55:39;;;;;;;7.20;6.50;;;25.80;62.00;;;;;;5034213;28;20176;-73
2023/08/15 08:58:05;;;;;;;7.10;6.40;;;25.80;62.10;;;;;;5031741;28;20262;-73
2023/08/15 09:00:34;;;;;;;7.43;6.73;;;25.80;62.00;;;;;;5033915;28;20481;-73
2023/08/15 09:03:00;;;;;;;7.87;6.40;;;25.80;62.00;;;;;;5033828;28;20785;-73
2023/08/15 09:05:27;;;;;;;7.40;6.70;;;25.80;62.10;;;;;;5034328;28;20426;-74
2023/08/15 09:07:53;;;;;;;9.07;7.47;;;25.80;62.20;;;;;;5016484;28;20195;-73
2023/08/15 09:10:21;;;;;;;6.73;6.10;;;25.80;62.20;;;;;;5016189;28;20936;-73
2023/08/15 09:12:49;;;;;;;6.47;5.97;;;25.80;62.20;;;;;;5034151;28;20286;-73
2023/08/15 09:15:15;;;;;;;6.83;6.23;;;25.80;62.20;;;;;;5034125;28;20414;-73
2023/08/15 09:17:42;;;;;;;6.13;5.63;;;25.80;62.20;;;;;;5034125;28;20975;-73
2023/08/15 09:20:11;;;;;;;6.70;6.10;;;25.80;62.10;;;;;;5034049;28;20203;-73
2023/08/15 09:22:40;;;;;;;6.10;5.60;;;25.80;62.20;;;;;;5034002;28;20501;-74
2023/08/15 09:25:06;;;;;;;6.60;6.00;;;25.80;62.10;;;;;;5034077;28;20422;-73
2023/08/15 09:27:31;;;;;;;6.80;6.20;;;25.80;62.10;;;;;;5033926;28;20922;-74
2023/08/15 09:29:57;;;;;;;7.13;6.53;;;25.80;62.10;;;;;;5033628;28;20454;-74
2023/08/15 09:32:22;;;;;;;5.90;5.40;;;25.80;62.20;;;;;;5033850;28;20576;-73
2023/08/15 09:34:48;;;;;;;6.90;6.30;;;25.80;62.20;;;;;;5033879;28;20179;-73
2023/08/15 09:37:13;;;;;;;6.70;6.20;;;25.80;62.10;;;;;;5033768;28;20211;-74
2023/08/15 09:39:40;;;;;;;6.37;5.80;;;25.80;62.20;;;;;;5033968;28;20191;-73
2023/08/15 09:42:06;;;;;;;6.90;6.13;;;25.80;62.20;;;;;;5033693;28;20510;-73
2023/08/15 09:44:34;;;;;;;6.43;5.80;;;25.80;62.20;;;;;;5033757;28;20489;-73
2023/08/15 09:47:01;;;;;;;6.77;6.07;;;25.80;62.20;;;;;;5033599;28;20178;-73
2023/08/15 09:49:30;;;;;;;7.23;6.53;;;25.90;62.20;;;;;;5033056;28;20461;-73
2023/08/15 09:52:01;;;;;;;6.90;6.20;;;25.90;62.20;;;;;;5033479;28;20457;-73
2023/08/15 09:54:30;;;;;;;6.07;5.57;;;25.80;62.10;;;;;;5033422;28;20777;-74
2023/08/15 09:56:57;;;;;;;6.37;5.73;;;25.80;62.10;;;;;;5033464;28;20449;-73
2023/08/15 09:59:23;;;;;;;6.23;5.70;;;25.80;62.10;;;;;;5033562;28;20945;-73
2023/08/15 10:01:52;;;;;;;6.90;6.20;;;25.90;62.20;;;;;;5033159;28;20407;-73
2023/08/15 10:04:20;;;;;;;6.20;5.70;;;25.80;62.10;;;;;;5015185;28;20419;-73
2023/08/15 10:06:47;;;;;;;6.40;5.67;;;25.80;62.10;;;;;;5033288;28;20464;-73
2023/08/15 10:09:14;;;;;;;6.57;6.07;;;25.90;62.20;;;;;;5033291;28;20402;-73
2023/08/15 10:11:44;;;;;;;5.93;5.43;;;25.80;62.20;;;;;;5033615;28;20911;-72
2023/08/15 10:14:16;;;;;;;5.70;5.20;;;25.90;62.20;;;;;;5033505;28;20409;-73
2023/08/15 10:16:42;;;;;;;5.80;5.30;;;25.90;62.20;;;;;;5033278;28;20446;-72
2023/08/15 10:19:13;;;;;;;7.07;6.37;;;25.90;62.20;;;;;;5033233;28;20783;-73
2023/08/15 10:21:52;;;;;;;6.73;6.10;;;25.90;62.30;;;;;;5032974;28;20478;-74
2023/08/15 10:24:18;;;;;;;6.47;5.87;;;25.90;62.40;;;;;;5033155;28;20410;-73
2023/08/15 10:26:45;;;;;;;7.17;6.53;;;25.90;62.30;;;;;;5032844;28;20421;-73
2023/08/15 10:29:11;;;;;;;6.33;5.73;;;25.90;62.40;;;;;;5032475;28;20180;-73
2023/08/15 10:31:39;;;;;;;6.80;6.20;;;25.90;62.40;;;;;;5014729;28;20491;-74
2023/08/15 10:34:10;;;;;;;7.53;6.83;;;25.90;62.50;;;;;;5032871;28;20931;-73
2023/08/15 10:36:36;;;;;;;7.03;6.33;;;25.90;62.40;;;;;;5032863;28;20417;-73
2023/08/15 10:39:06;;;;;;;6.57;5.97;;;25.90;62.40;;;;;;5032743;28;20406;-73
2023/08/15 10:41:36;;;;;;;6.60;6.00;;;25.90;62.50;;;;;;5014833;28;20990;-73
2023/08/15 10:44:06;;;;;;;6.70;6.07;;;25.90;62.40;;;;;;5029489;28;20425;-73
2023/08/15 10:46:33;;;;;;;7.60;6.90;;;25.90;62.50;;;;;;5032311;28;20414;-74
2023/08/15 10:49:04;;;;;;;6.63;5.53;;;25.90;62.40;;;;;;5032183;28;20410;-73
2023/08/15 10:51:42;;;;;;;6.30;5.80;;;25.90;62.40;;;;;;5032133;28;20438;-74
2023/08/15 10:54:13;;;;;;;6.13;5.63;;;25.90;62.40;;;;;;5032276;28;20422;-72
2023/08/15 10:56:40;;;;;;;5.53;5.13;;;25.90;62.40;;;;;;5032091;28;20397;-73
2023/08/15 10:59:12;;;;;;;6.17;5.60;;;25.90;62.30;;;;;;5032137;28;20403;-72
2023/08/15 11:01:40;;;;;;;5.70;5.20;;;25.90;62.40;;;;;;5031122;28;20492;-73
2023/08/15 11:04:08;;;;;;;6.00;5.50;;;25.90;62.40;;;;;;5014266;28;20458;-73
2023/08/15 11:06:52;;;;;;;6.60;6.00;;;25.90;62.40;;;;;;5014403;28;20497;-73
2023/08/15 11:09:18;;;;;;;6.70;6.07;;;25.90;62.30;;;;;;5014223;28;20406;-72
2023/08/15 11:11:48;;;;;;;6.33;5.73;;;25.90;62.30;;;;;;5031930;28;20414;-72
2023/08/15 11:14:18;;;;;;;6.57;6.07;;;25.90;62.30;;;;;;5032309;28;20543;-73
2023/08/15 11:16:45;;;;;;;6.20;5.70;;;25.90;62.40;;;;;;5032325;28;20501;-73
2023/08/15 11:19:13;;;;;;;6.47;5.13;;;25.90;62.30;;;;;;5031803;28;20984;-73
2023/08/15 11:21:39;;;;;;;5.43;5.03;;;25.90;62.30;;;;;;5031946;28;20497;-74
2023/08/15 11:24:05;;;;;;;7.60;5.80;;;25.90;62.30;;;;;;5031647;28;20498;-73
2023/08/15 11:26:30;;;;;;;6.20;5.70;;;25.90;62.30;;;;;;5013966;28;20176;-72
2023/08/15 11:28:56;;;;;;;6.13;5.63;;;25.90;62.30;;;;;;5031848;28;20178;-72
2023/08/15 11:31:21;;;;;;;6.50;6.00;;;25.90;62.30;;;;;;5031581;28;20281;-72
2023/08/15 11:33:50;;;;;;;6.40;5.83;;;25.90;62.20;;;;;;5031643;28;20195;-72
2023/08/15 11:36:16;;;;;;;6.20;5.60;;;25.90;62.20;;;;;;5031791;28;20690;-72
2023/08/15 11:38:41;;;;;;;5.30;4.90;;;25.90;62.20;;;;;;5031909;28;20410;-73
2023/08/15 11:41:07;;;;;;;5.40;4.90;;;26.00;62.40;;;;;;5031613;28;20695;-72
2023/08/15 11:43:33;;;;;;;6.07;5.60;;;26.00;62.30;;;;;;5031715;28;20241;-73
2023/08/15 11:46:06;;;;;;;5.73;5.23;;;26.00;63.10;;;;;;5031760;28;20175;-73
2023/08/15 11:48:33;;;;;;;5.70;5.20;;;26.00;62.30;;;;;;5031793;28;20406;-73
2023/08/15 11:50:59;;;;;;;5.23;4.83;;;26.00;62.30;;;;;;5031831;28;20492;-72
2023/08/15 11:53:25;;;;;;;6.20;5.70;;;26.00;62.30;;;;;;5031616;28;20496;-73
2023/08/15 11:55:51;;;;;;;6.27;5.70;;;26.00;62.30;;;;;;5013883;28;20934;-72
2023/08/15 11:58:24;;;;;;;5.00;4.60;;;26.00;62.30;;;;;;5031707;28;20543;-72
2023/08/15 12:00:56;;;;;;;6.40;5.60;;;26.00;62.30;;;;;;5031760;28;20441;-73
2023/08/15 12:03:24;;;;;;;6.53;5.93;;;26.00;62.30;;;;;;5031325;28;20850;-72
2023/08/15 12:05:55;;;;;;;5.90;5.40;;;26.00;62.30;;;;;;5031446;28;20417;-73
2023/08/15 12:08:20;;;;;;;5.47;5.07;;;26.00;62.30;;;;;;5031522;28;20537;-72
2023/08/15 12:10:46;;;;;;;5.60;5.10;;;26.00;62.30;;;;;;5031352;28;20435;-72
2023/08/15 12:13:12;;;;;;;5.63;5.20;;;26.00;62.30;;;;;;5032416;28;20195;-73
2023/08/15 12:15:38;;;;;;;5.20;4.80;;;26.00;62.30;;;;;;5035353;28;20309;-73
2023/08/15 12:18:05;;;;;;;5.50;5.10;;;26.00;62.20;;;;;;5035250;28;20489;-73
2023/08/15 12:20:30;;;;;;;6.33;5.80;;;26.00;62.20;;;;;;5035099;28;20191;-73
2023/08/15 12:22:56;;;;;;;5.60;5.10;;;26.00;62.30;;;;;;5017345;28;20422;-72
2023/08/15 12:25:21;;;;;;;5.70;5.27;;;26.00;62.20;;;;;;5035562;28;20230;-73
2023/08/15 12:27:47;;;;;;;5.33;4.93;;;26.00;62.20;;;;;;5035304;28;20179;-73
2023/08/15 12:30:13;;;;;;;5.17;4.73;;;26.00;62.20;;;;;;5034837;28;20207;-73
2023/08/15 12:32:39;;;;;;;5.57;5.13;;;26.00;62.20;;;;;;5035081;28;20199;-73
2023/08/15 12:35:04;;;;;;;6.47;5.77;;;26.00;62.30;;;;;;5035063;28;20495;-73
2023/08/15 12:37:30;;;;;;;5.83;5.33;;;26.00;62.20;;;;;;5035204;28;20732;-73
2023/08/15 12:39:56;;;;;;;6.70;5.30;;;26.00;62.20;;;;;;5035207;28;20282;-73